Time;durP1;ratioP1;P1;durP2;ratioP2;P2;SDS_P1;SDS_P2;PMS_P1;PMS_P2;Temp;Humidity;BMP_temperature;BMP_pressure;BME280_temperature;BME280_humidity;BME280_pressure;Samples;Min_cycle;Max_cycle;Signal;HPM_P1;HPM_P2
2023/02/05 00:00:59;;;;;;;;;;;;;;;-1.86;95.84;103441.11;108031;1256;59420;-80
2023/02/05 00:03:41;;;;;;;;;;;;;;;-1.94;95.68;103445.74;108002;1254;124619;-80
2023/02/05 00:06:07;;;;;;;;;;;;;;;-2.00;95.58;103449.70;107521;1259;61285;-81
2023/02/05 00:08:34;;;;;;;;;;;;;;;-2.06;95.52;103452.36;107523;1254;124584;-80
2023/02/05 00:11:08;;;;;;;;;;;;;;;-2.13;95.27;103449.34;107653;1258;61170;-79
2023/02/05 00:13:36;;;;;;;;;;;;;;;-2.17;95.32;103450.79;107271;1254;124757;-80
2023/02/05 00:16:06;;;;;;;;;;;;;;;-2.19;95.46;103455.55;107710;1254;72854;-80
2023/02/05 00:18:32;;;;;;;;;;;;;;;-2.22;95.40;103454.80;107868;1257;59331;-84
2023/02/05 00:21:19;;;;;;;;;;;;;;;-2.24;95.52;103456.42;107303;1257;124174;-86
2023/02/05 00:23:46;;;;;;;;;;;;;;;-2.29;95.27;103458.93;107269;1254;75029;-84
2023/02/05 00:26:50;;;;;;;;;;;;;;;-2.38;94.98;103459.31;107238;1254;124573;-84
2023/02/05 00:29:22;;;;;;;;;;;;;;;-2.47;94.77;103463.65;107181;1258;72722;-83
2023/02/05 00:31:52;;;;;;;;;;;;;;;-2.52;94.80;103467.02;106950;1257;125823;-83
2023/02/05 00:34:20;;;;;;;;;;;;;;;-2.57;94.81;103472.84;107133;1254;61355;-84
2023/02/05 00:36:49;;;;;;;;;;;;;;;-2.61;94.77;103471.92;107270;1254;73543;-84
2023/02/05 00:39:15;;;;;;;;;;;;;;;-2.66;94.60;103467.69;107134;1254;124642;-84
2023/02/05 00:41:41;;;;;;;;;;;;;;;-2.72;94.57;103471.98;107339;1254;61311;-84
2023/02/05 00:44:08;;;;;;;;;;;;;;;-2.79;94.43;103473.25;107062;1258;124828;-84
2023/02/05 00:46:39;;;;;;;;;;;;;;;-2.83;94.54;103472.68;107269;1254;61287;-84
2023/02/05 00:49:08;;;;;;;;;;;;;;;-2.88;94.45;103472.80;107286;1260;73513;-85
2023/02/05 00:51:38;;;;;;;;;;;;;;;-2.92;94.38;103466.63;107202;1254;124687;-84
2023/02/05 00:54:04;;;;;;;;;;;;;;;-2.95;94.40;103463.23;107129;1254;70481;-85
2023/02/05 00:57:03;;;;;;;;;;;;;;;-2.98;94.48;103464.23;107142;1257;124983;-84
2023/02/05 00:59:30;;;;;;;;;;;;;;;-3.02;94.36;103464.71;107258;1257;61385;-85
2023/02/05 01:02:29;;;;;;;;;;;;;;;-3.05;94.45;103467.27;107061;1254;124821;-84
2023/02/05 01:04:55;;;;;;;;;;;;;;;-3.08;94.43;103464.63;107298;1254;66938;-85
2023/02/05 01:07:22;;;;;;;;;;;;;;;-3.11;94.40;103464.52;107356;1254;61387;-84
2023/02/05 01:09:48;;;;;;;;;;;;;;;-3.13;94.56;103463.59;107126;1254;125102;-85
2023/02/05 01:12:49;;;;;;;;;;;;;;;-3.15;94.52;103464.64;107276;1254;61291;-86
2023/02/05 01:15:19;;;;;;;;;;;;;;;-3.19;94.42;103466.90;107240;1253;124792;-86
2023/02/05 01:17:46;;;;;;;;;;;;;;;-3.21;94.38;103462.19;107271;1257;67060;-84
2023/02/05 01:20:13;;;;;;;;;;;;;;;-3.23;94.36;103462.63;107299;1254;124637;-85
2023/02/05 01:22:44;;;;;;;;;;;;;;;-3.26;94.24;103462.43;107318;1258;61268;-85
2023/02/05 01:25:12;;;;;;;;;;;;;;;-3.28;94.38;103461.11;107331;1256;60133;-85
2023/02/05 01:27:41;;;;;;;;;;;;;;;-3.31;94.27;103459.54;107179;1257;125399;-85
2023/02/05 01:30:40;;;;;;;;;;;;;;;-3.35;94.19;103458.98;107397;1259;64919;-84
2023/02/05 01:33:06;;;;;;;;;;;;;;;-3.38;94.19;103456.71;107163;1254;124701;-84
2023/02/05 01:35:32;;;;;;;;;;;;;;;-3.40;94.22;103460.90;107457;1254;61225;-85
2023/02/05 01:37:59;;;;;;;;;;;;;;;-3.43;94.09;103458.41;107343;1254;125376;-84
2023/02/05 01:40:26;;;;;;;;;;;;;;;-3.45;94.19;103457.20;107200;1257;59384;-85
2023/02/05 01:42:54;;;;;;;;;;;;;;;-3.45;94.21;103458.00;107363;1254;64614;-85
2023/02/05 01:45:21;;;;;;;;;;;;;;;-3.45;94.26;103460.48;107262;1255;124596;-83
2023/02/05 01:47:50;;;;;;;;;;;;;;;-3.42;94.45;103458.35;107393;1254;61266;-85
2023/02/05 01:50:20;;;;;;;;;;;;;;;-3.41;94.38;103454.75;107273;1254;124633;-85
2023/02/05 01:52:49;;;;;;;;;;;;;;;-3.42;94.43;103453.96;107237;1254;75758;-84
2023/02/05 01:55:55;;;;;;;;;;;;;;;-3.40;94.48;103453.83;107555;1256;66989;-85
2023/02/05 01:58:21;;;;;;;;;;;;;;;-3.31;94.86;103453.61;107613;1254;71657;-82
2023/02/05 02:00:48;;;;;;;;;;;;;;;-3.22;95.17;103454.20;107474;1257;61315;-85
2023/02/05 02:03:14;;;;;;;;;;;;;;;-3.12;95.33;103454.75;107317;1254;125940;-84
2023/02/05 02:06:14;;;;;;;;;;;;;;;-3.03;95.59;103453.05;107262;1256;61420;-84
2023/02/05 02:08:41;;;;;;;;;;;;;;;-2.93;95.81;103450.16;107307;1254;125195;-84
2023/02/05 02:11:12;;;;;;;;;;;;;;;-2.88;95.83;103446.13;107308;1254;72993;-84
2023/02/05 02:13:39;;;;;;;;;;;;;;;-2.85;95.58;103442.74;107030;1260;125324;-84
2023/02/05 02:16:07;;;;;;;;;;;;;;;-2.82;95.62;103446.76;107431;1255;61202;-85
2023/02/05 02:18:35;;;;;;;;;;;;;;;-2.79;95.57;103446.77;107379;1253;74528;-84
2023/02/05 02:21:08;;;;;;;;;;;;;;;-2.77;95.54;103440.67;107323;1254;66867;-85
2023/02/05 02:27:37;;;;;;;;;;;;;;;-2.71;95.55;103430.36;107326;1254;59437;-85
2023/02/05 02:30:24;;;;;;;;;;;;;;;-2.71;95.51;103431.28;107188;1254;61167;-85
2023/02/05 02:33:03;;;;;;;;;;;;;;;-2.75;95.20;103436.91;107195;1254;73215;-85
2023/02/05 02:36:03;;;;;;;;;;;;;;;-2.79;95.15;103442.75;107113;1254;67264;-85
2023/02/05 02:38:31;;;;;;;;;;;;;;;-2.87;94.79;103442.15;107080;1255;124698;-85
2023/02/05 02:40:59;;;;;;;;;;;;;;;-2.92;94.73;103441.52;107272;1255;61035;-84
2023/02/05 02:43:32;;;;;;;;;;;;;;;-2.97;94.54;103441.24;107134;1254;59771;-84
2023/02/05 02:46:08;;;;;;;;;;;;;;;-3.04;94.44;103440.57;107215;1253;124589;-84
2023/02/05 02:48:35;;;;;;;;;;;;;;;-3.10;94.28;103439.62;107024;1257;64741;-85
2023/02/05 02:51:01;;;;;;;;;;;;;;;-3.14;94.39;103435.79;107115;1254;124798;-86
2023/02/05 02:53:29;;;;;;;;;;;;;;;-3.16;94.42;103432.84;107249;1257;61217;-85
2023/02/05 02:56:31;;;;;;;;;;;;;;;-3.16;94.50;103422.10;107153;1254;124933;-85
2023/02/05 02:58:58;;;;;;;;;;;;;;;-3.19;94.46;103417.52;107237;1256;73233;-84
2023/02/05 03:01:26;;;;;;;;;;;;;;;-3.20;94.31;103412.36;107103;1258;64881;-83
2023/02/05 03:03:55;;;;;;;;;;;;;;;-3.22;94.42;103409.71;107022;1254;124641;-85
2023/02/05 03:06:21;;;;;;;;;;;;;;;-3.23;94.44;103406.51;107280;1254;61227;-85
2023/02/05 03:08:52;;;;;;;;;;;;;;;-3.22;94.56;103415.02;107081;1257;125106;-85
2023/02/05 03:11:55;;;;;;;;;;;;;;;-3.18;94.73;103419.44;107151;1257;73517;-85
2023/02/05 03:14:21;;;;;;;;;;;;;;;-3.11;95.06;103418.89;107215;1253;124911;-85
2023/02/05 03:16:53;;;;;;;;;;;;;;;-3.08;95.12;103422.73;107182;1255;62114;-85
2023/02/05 03:19:19;;;;;;;;;;;;;;;-3.05;95.15;103418.88;107402;1254;61208;-85
2023/02/05 03:21:49;;;;;;;;;;;;;;;-2.98;95.35;103421.08;107317;1254;124606;-85
2023/02/05 03:24:21;;;;;;;;;;;;;;;-2.92;95.48;103423.33;107230;1253;74633;-85
2023/02/05 03:26:47;;;;;;;;;;;;;;;-2.85;95.75;103427.03;106904;1253;124708;-85
2023/02/05 03:29:24;;;;;;;;;;;;;;;-2.82;95.63;103432.59;107239;1254;60609;-85
2023/02/05 03:32:23;;;;;;;;;;;;;;;-2.77;95.83;103436.84;107024;1254;124808;-86
2023/02/05 03:34:58;;;;;;;;;;;;;;;-2.69;95.87;103442.30;107305;1254;61136;-86
2023/02/05 03:37:46;;;;;;;;;;;;;;;-2.63;96.03;103437.80;107323;1257;74662;-85
2023/02/05 03:40:17;;;;;;;;;;;;;;;-2.56;96.09;103437.11;107277;1260;66329;-86
2023/02/05 03:43:18;;;;;;;;;;;;;;;-2.49;96.07;103439.27;107190;1255;72227;-86
2023/02/05 03:46:00;;;;;;;;;;;;;;;-2.44;96.10;103441.52;107308;1258;124583;-85
2023/02/05 03:48:39;;;;;;;;;;;;;;;-2.40;96.27;103438.08;107517;1253;59303;-85
2023/02/05 03:51:16;;;;;;;;;;;;;;;-2.36;96.15;103435.80;107298;1254;124589;-85
2023/02/05 03:53:55;;;;;;;;;;;;;;;-2.31;96.12;103435.83;107317;1257;66891;-84
2023/02/05 03:56:24;;;;;;;;;;;;;;;-2.26;96.21;103433.51;107109;1254;124932;-85
2023/02/05 03:59:28;;;;;;;;;;;;;;;-2.23;96.20;103431.52;107243;1254;61336;-85
2023/02/05 04:02:33;;;;;;;;;;;;;;;-2.18;96.42;103432.95;107478;1257;124810;-85
2023/02/05 04:05:01;;;;;;;;;;;;;;;-2.17;96.22;103431.06;107042;1254;73447;-86
2023/02/05 04:08:08;;;;;;;;;;;;;;;-2.16;96.20;103428.56;107187;1254;67013;-86
2023/02/05 04:11:08;;;;;;;;;;;;;;;-2.17;95.96;103429.26;107204;1254;70841;-86
2023/02/05 04:13:35;;;;;;;;;;;;;;;-2.19;95.84;103424.02;107256;1256;61305;-85
2023/02/05 04:16:06;;;;;;;;;;;;;;;-2.24;95.61;103419.84;107197;1255;125916;-84
2023/02/05 04:18:38;;;;;;;;;;;;;;;-2.33;95.48;103414.23;107232;1256;74754;-85
2023/02/05 04:21:05;;;;;;;;;;;;;;;-2.42;94.79;103425.73;107117;1254;124627;-85
2023/02/05 04:27:21;;;;;;;;;;;;;;;-2.65;94.38;103435.89;107219;1257;124809;-85
2023/02/05 04:29:47;;;;;;;;;;;;;;;-2.73;94.32;103428.44;107373;1254;61348;-86
2023/02/05 04:32:17;;;;;;;;;;;;;;;-2.82;94.16;103434.73;107315;1254;125450;-85
2023/02/05 04:34:48;;;;;;;;;;;;;;;-2.89;94.15;103437.87;107171;1254;67385;-85
2023/02/05 04:37:57;;;;;;;;;;;;;;;-2.99;93.97;103433.81;107162;1254;72753;-84
2023/02/05 04:40:24;;;;;;;;;;;;;;;-3.09;93.96;103432.61;107253;1254;61139;-85
2023/02/05 04:42:56;;;;;;;;;;;;;;;-3.15;93.93;103435.45;107231;1256;59957;-84
2023/02/05 04:45:27;;;;;;;;;;;;;;;-3.19;93.97;103436.23;106972;1258;124748;-85
2023/02/05 04:47:55;;;;;;;;;;;;;;;-3.20;94.11;103438.93;107111;1256;65646;-84
2023/02/05 04:50:37;;;;;;;;;;;;;;;-3.23;94.11;103440.55;107152;1256;124968;-85
2023/02/05 04:53:36;;;;;;;;;;;;;;;-3.27;93.98;103439.80;107377;1256;61235;-86
2023/02/05 04:56:07;;;;;;;;;;;;;;;-3.32;94.05;103440.44;107261;1254;125307;-85
2023/02/05 04:58:38;;;;;;;;;;;;;;;-3.33;94.11;103437.23;107133;1254;73251;-85
2023/02/05 05:01:04;;;;;;;;;;;;;;;-3.34;94.10;103435.85;107291;1254;66938;-84
2023/02/05 05:03:32;;;;;;;;;;;;;;;-3.36;94.15;103430.48;107093;1257;124649;-83
2023/02/05 05:06:02;;;;;;;;;;;;;;;-3.39;94.12;103433.23;107386;1255;61388;-85
2023/02/05 05:08:30;;;;;;;;;;;;;;;-3.43;94.01;103428.29;107094;1254;125539;-84
2023/02/05 05:10:59;;;;;;;;;;;;;;;-3.44;94.03;103434.29;107219;1254;73136;-85
2023/02/05 05:13:25;;;;;;;;;;;;;;;-3.46;94.07;103435.70;107562;1254;67069;-79
2023/02/05 05:15:55;;;;;;;;;;;;;;;-3.47;94.07;103435.26;107530;1257;124776;-80
2023/02/05 05:18:21;;;;;;;;;;;;;;;-3.48;94.11;103433.42;107365;1254;61267;-86
2023/02/05 05:20:47;;;;;;;;;;;;;;;-3.52;94.07;103427.10;107064;1254;124650;-80
2023/02/05 05:23:15;;;;;;;;;;;;;;;-3.57;93.94;103424.85;107591;1254;61247;-85
2023/02/05 05:25:44;;;;;;;;;;;;;;;-3.59;93.91;103421.57;107393;1255;67048;-85
2023/02/05 05:28:15;;;;;;;;;;;;;;;-3.63;93.77;103424.92;106998;1254;125260;-85
2023/02/05 05:31:18;;;;;;;;;;;;;;;-3.65;93.83;103426.02;107220;1254;61602;-85
2023/02/05 05:33:45;;;;;;;;;;;;;;;-3.67;93.88;103427.30;107007;1257;124773;-85
2023/02/05 05:36:11;;;;;;;;;;;;;;;-3.67;93.94;103430.90;106938;1256;61176;-86
2023/02/05 05:38:41;;;;;;;;;;;;;;;-3.69;93.89;103432.06;107003;1254;124956;-85
2023/02/05 05:44:02;;;;;;;;;;;;;;;-3.68;93.99;103433.98;107137;1256;124819;-86
2023/02/05 05:46:28;;;;;;;;;;;;;;;-3.67;94.12;103440.80;107259;1253;61076;-86
2023/02/05 05:48:55;;;;;;;;;;;;;;;-3.69;94.12;103444.38;107313;1254;61151;-86
2023/02/05 05:51:54;;;;;;;;;;;;;;;-3.71;93.98;103443.28;107306;1253;124622;-86
2023/02/05 05:54:25;;;;;;;;;;;;;;;-3.73;93.94;103445.75;107489;1254;72933;-86
2023/02/05 05:56:56;;;;;;;;;;;;;;;-3.74;93.92;103449.42;107314;1257;125579;-85
2023/02/05 05:59:26;;;;;;;;;;;;;;;-3.77;93.91;103455.45;107448;1257;61209;-86
2023/02/05 06:01:52;;;;;;;;;;;;;;;-3.81;94.01;103449.38;107188;1254;73455;-86
2023/02/05 06:05:01;;;;;;;;;;;;;;;-3.82;93.94;103449.17;107195;1254;124530;-86
2023/02/05 06:08:06;;;;;;;;;;;;;;;-3.85;93.86;103451.45;107378;1254;71716;-86
2023/02/05 06:10:32;;;;;;;;;;;;;;;-3.86;93.83;103452.86;107312;1254;61275;-85
2023/02/05 06:12:59;;;;;;;;;;;;;;;-3.88;93.82;103452.84;107413;1258;61369;-85
2023/02/05 06:15:27;;;;;;;;;;;;;;;-3.89;93.84;103458.54;107202;1254;124780;-85
2023/02/05 06:17:59;;;;;;;;;;;;;;;-3.86;94.03;103462.96;107380;1256;65697;-85
2023/02/05 06:20:25;;;;;;;;;;;;;;;-3.85;94.07;103462.13;107212;1255;124972;-85
2023/02/05 06:22:54;;;;;;;;;;;;;;;-3.84;94.18;103461.36;107253;1256;59520;-85
2023/02/05 06:25:24;;;;;;;;;;;;;;;-3.85;94.07;103467.08;107310;1257;61247;-85
2023/02/05 06:28:22;;;;;;;;;;;;;;;-3.85;94.15;103472.79;107194;1254;124564;-86
2023/02/05 06:30:49;;;;;;;;;;;;;;;-3.84;94.24;103480.95;107276;1256;66220;-80
2023/02/05 06:33:15;;;;;;;;;;;;;;;-3.82;94.22;103493.62;107613;1254;124729;-80
2023/02/05 06:35:41;;;;;;;;;;;;;;;-3.81;94.21;103500.95;107502;1257;61224;-80
2023/02/05 06:38:08;;;;;;;;;;;;;;;-3.81;94.14;103494.17;108727;1254;124820;-80
2023/02/05 06:40:34;;;;;;;;;;;;;;;-3.78;94.22;103493.67;109048;1254;59657;-79
2023/02/05 06:43:00;;;;;;;;;;;;;;;-3.75;94.31;103491.01;109047;1254;59403;-79
2023/02/05 06:45:26;;;;;;;;;;;;;;;-3.71;94.34;103487.20;108821;1257;125346;-79
2023/02/05 06:47:54;;;;;;;;;;;;;;;-3.65;94.49;103493.56;108810;1254;60048;-80
2023/02/05 06:50:21;;;;;;;;;;;;;;;-3.60;94.57;103500.60;108944;1254;124934;-80
2023/02/05 06:52:48;;;;;;;;;;;;;;;-3.57;94.61;103505.61;108844;1254;74684;-79
2023/02/05 06:55:16;;;;;;;;;;;;;;;-3.54;94.48;103512.73;109032;1254;65685;-80
2023/02/05 06:57:43;;;;;;;;;;;;;;;-3.50;94.47;103508.89;108774;1254;125107;-80
2023/02/05 07:00:10;;;;;;;;;;;;;;;-3.49;94.42;103507.09;108845;1254;59372;-80
2023/02/05 07:02:36;;;;;;;;;;;;;;;-3.47;94.34;103512.33;107618;1255;124763;-80
2023/02/05 07:05:03;;;;;;;;;;;;;;;-3.44;94.45;103517.27;107773;1254;61356;-80
2023/02/05 07:07:29;;;;;;;;;;;;;;;-3.39;94.48;103518.19;107791;1254;61298;-80
2023/02/05 07:09:55;;;;;;;;;;;;;;;-3.35;94.60;103520.08;108025;1254;124676;-80
2023/02/05 07:12:22;;;;;;;;;;;;;;;-3.30;94.68;103519.30;107947;1254;61339;-80
2023/02/05 07:14:48;;;;;;;;;;;;;;;-3.23;94.85;103525.45;108085;1256;125386;-86
2023/02/05 07:17:16;;;;;;;;;;;;;;;-3.16;94.89;103528.96;107697;1254;61132;-79
2023/02/05 07:19:42;;;;;;;;;;;;;;;-3.08;94.98;103531.99;107741;1254;65745;-80
2023/02/05 07:22:11;;;;;;;;;;;;;;;-3.03;95.15;103524.06;107332;1257;124650;-80
2023/02/05 07:24:38;;;;;;;;;;;;;;;-2.97;95.15;103522.87;107495;1256;61141;-86
2023/02/05 07:27:04;;;;;;;;;;;;;;;-2.90;95.18;103521.19;107290;1260;124693;-80
2023/02/05 07:29:30;;;;;;;;;;;;;;;-2.81;95.30;103523.77;108162;1254;59364;-80
2023/02/05 07:31:57;;;;;;;;;;;;;;;-2.71;95.42;103524.98;108064;1257;61138;-80
2023/02/05 07:34:23;;;;;;;;;;;;;;;-2.64;95.53;103529.02;107516;1257;124719;-80
2023/02/05 07:36:50;;;;;;;;;;;;;;;-2.57;95.73;103527.11;107736;1255;61271;-80
2023/02/05 07:39:26;;;;;;;;;;;;;;;-2.48;95.71;103527.29;107670;1257;125086;-80
2023/02/05 07:41:53;;;;;;;;;;;;;;;-2.39;95.78;103532.20;107623;1257;74745;-80
2023/02/05 07:44:19;;;;;;;;;;;;;;;-2.32;95.86;103535.85;107377;1260;125270;-80
2023/02/05 07:46:46;;;;;;;;;;;;;;;-2.25;95.77;103541.86;107544;1254;71246;-80
2023/02/05 07:49:46;;;;;;;;;;;;;;;-2.19;95.77;103544.11;107565;1254;61216;-86
2023/02/05 07:52:13;;;;;;;;;;;;;;;-2.10;95.92;103546.12;107163;1256;125155;-86
2023/02/05 07:54:40;;;;;;;;;;;;;;;-2.03;95.87;103547.90;107184;1257;74461;-81
2023/02/05 07:57:06;;;;;;;;;;;;;;;-1.96;96.10;103546.20;107454;1254;124877;-82
2023/02/05 07:59:32;;;;;;;;;;;;;;;-1.87;96.07;103550.30;107725;1256;63802;-83
2023/02/05 08:01:58;;;;;;;;;;;;;;;-1.80;96.17;103548.30;107483;1255;61489;-81
2023/02/05 08:04:57;;;;;;;;;;;;;;;-1.72;96.34;103550.62;107445;1257;125197;-81
2023/02/05 08:07:23;;;;;;;;;;;;;;;-1.63;96.19;103548.91;108942;1253;74792;-81
2023/02/05 08:09:49;;;;;;;;;;;;;;;-1.58;96.05;103549.18;108931;1254;124733;-81
2023/02/05 08:12:16;;;;;;;;;;;;;;;-1.52;96.29;103550.21;108997;1254;59256;-80
2023/02/05 08:14:43;;;;;;;;;;;;;;;-1.47;96.05;103553.19;107898;1256;125295;-82
2023/02/05 08:17:10;;;;;;;;;;;;;;;-1.42;95.99;103550.89;107706;1254;61304;-81
2023/02/05 08:19:36;;;;;;;;;;;;;;;-1.35;96.17;103556.30;107158;1254;60819;-82
2023/02/05 08:22:03;;;;;;;;;;;;;;;-1.29;96.29;103555.52;107325;1256;125259;-82
2023/02/05 08:24:33;;;;;;;;;;;;;;;-1.21;96.24;103557.45;107637;1254;59598;-86
2023/02/05 08:27:01;;;;;;;;;;;;;;;-1.13;96.28;103553.89;107376;1255;124819;-92
2023/02/05 08:29:29;;;;;;;;;;;;;;;-1.06;96.28;103554.92;107298;1256;61139;-84
2023/02/05 08:31:56;;;;;;;;;;;;;;;-0.98;96.52;103562.36;107474;1256;73367;-84
2023/02/05 08:34:24;;;;;;;;;;;;;;;-0.92;96.71;103562.55;107174;1253;125264;-84
2023/02/05 08:40:44;;;;;;;;;;;;;;;-0.72;97.07;103554.98;107361;1254;61128;-85
2023/02/05 08:43:15;;;;;;;;;;;;;;;-0.65;97.11;103552.71;107241;1254;61347;-86
2023/02/05 08:45:44;;;;;;;;;;;;;;;-0.58;97.15;103553.07;107276;1256;125105;-86
2023/02/05 08:48:11;;;;;;;;;;;;;;;-0.52;97.10;103552.13;107393;1254;65950;-85
2023/02/05 08:54:26;;;;;;;;;;;;;;;-0.38;97.06;103544.94;107125;1254;61152;-87
2023/02/05 08:56:54;;;;;;;;;;;;;;;-0.33;96.98;103548.67;107290;1257;124986;-86
2023/02/05 08:59:21;;;;;;;;;;;;;;;-0.28;96.84;103548.97;107522;1256;74541;-84
2023/02/05 09:01:48;;;;;;;;;;;;;;;-0.27;96.80;103555.36;107657;1256;66108;-86
2023/02/05 09:04:18;;;;;;;;;;;;;;;-0.27;96.69;103552.11;107260;1256;124552;-86
2023/02/05 09:06:46;;;;;;;;;;;;;;;-0.27;96.56;103547.71;107411;1254;61353;-85
2023/02/05 09:09:45;;;;;;;;;;;;;;;-0.25;96.65;103549.33;107263;1256;124773;-86
2023/02/05 09:12:15;;;;;;;;;;;;;;;-0.23;96.62;103547.16;107433;1257;73626;-84
2023/02/05 09:14:41;;;;;;;;;;;;;;;-0.20;96.53;103540.96;107427;1256;124859;-84
2023/02/05 09:17:13;;;;;;;;;;;;;;;-0.15;96.71;103539.98;107413;1257;61169;-85
2023/02/05 09:20:12;;;;;;;;;;;;;;;-0.10;96.85;103538.12;107254;1259;59824;-87
2023/02/05 09:22:42;;;;;;;;;;;;;;;-0.05;96.75;103535.50;107255;1255;61264;-86
2023/02/05 09:25:09;;;;;;;;;;;;;;;-0.03;96.75;103537.91;107235;1259;74578;-87
2023/02/05 09:27:37;;;;;;;;;;;;;;;0.00;96.92;103534.74;107080;1257;124803;-86
2023/02/05 09:30:03;;;;;;;;;;;;;;;0.03;96.94;103532.98;107387;1258;72759;-86
2023/02/05 09:33:07;;;;;;;;;;;;;;;0.04;96.81;103529.79;107240;1255;124584;-89
2023/02/05 09:35:33;;;;;;;;;;;;;;;0.04;96.82;103526.20;107375;1256;59575;-85
2023/02/05 09:38:04;;;;;;;;;;;;;;;0.05;96.88;103521.95;107411;1256;59620;-89
2023/02/05 09:40:49;;;;;;;;;;;;;;;0.03;96.65;103521.44;107075;1259;124500;-85
2023/02/05 09:44:01;;;;;;;;;;;;;;;0.04;96.53;103517.95;107230;1257;72545;-87
2023/02/05 09:46:43;;;;;;;;;;;;;;;0.08;96.78;103524.98;107250;1255;124788;-86
2023/02/05 09:49:20;;;;;;;;;;;;;;;0.12;96.79;103521.95;106996;1261;212070;-85
2023/02/05 09:51:52;;;;;;;;;;;;;;;0.13;96.75;103514.98;107074;1255;124912;-86
2023/02/05 09:54:38;;;;;;;;;;;;;;;0.15;96.75;103515.08;107125;1257;65810;-87
2023/02/05 10:01:03;;;;;;;;;;;;;;;0.26;96.90;103510.98;106660;1266;61209;-85
2023/02/05 10:03:42;;;;;;;;;;;;;;;0.29;96.68;103509.40;106500;1264;124829;-85
2023/02/05 10:06:09;;;;;;;;;;;;;;;0.31;96.90;103508.61;106832;1265;75038;-85
2023/02/05 10:08:54;;;;;;;;;;;;;;;0.31;96.68;103506.05;106825;1268;124664;-86
2023/02/05 10:11:31;;;;;;;;;;;;;;;0.34;96.73;103511.23;106810;1265;72751;-85
2023/02/05 10:14:06;;;;;;;;;;;;;;;0.40;96.84;103512.69;106510;1266;61257;-85
2023/02/05 10:16:44;;;;;;;;;;;;;;;0.45;96.96;103515.14;106391;1264;125058;-86
2023/02/05 10:19:20;;;;;;;;;;;;;;;0.53;96.94;103518.53;106586;1266;73364;-85
2023/02/05 10:21:49;;;;;;;;;;;;;;;0.62;97.33;103522.75;106745;1265;124484;-84
2023/02/05 10:24:38;;;;;;;;;;;;;;;0.70;97.51;103523.61;106690;1264;73103;-86
2023/02/05 10:27:06;;;;;;;;;;;;;;;0.72;97.35;103519.89;106697;1265;125062;-84
2023/02/05 10:29:51;;;;;;;;;;;;;;;0.73;97.42;103518.80;106779;1266;61392;-84
2023/02/05 10:32:27;;;;;;;;;;;;;;;0.75;97.44;103519.74;106586;1264;125196;-84
2023/02/05 10:35:26;;;;;;;;;;;;;;;0.75;97.20;103517.75;106597;1265;67255;-82
2023/02/05 10:38:28;;;;;;;;;;;;;;;0.70;97.18;103520.55;106953;1260;74273;-84
2023/02/05 10:41:28;;;;;;;;;;;;;;;0.69;97.13;103520.38;107074;1260;61380;-83
2023/02/05 10:44:09;;;;;;;;;;;;;;;0.75;97.48;103515.23;107392;1257;61171;-84
2023/02/05 10:46:51;;;;;;;;;;;;;;;0.80;97.45;103511.54;107551;1260;124591;-84
2023/02/05 10:49:43;;;;;;;;;;;;;;;0.86;97.58;103512.39;107072;1260;67109;-92
2023/02/05 10:55:52;;;;;;;;;;;;;;;1.00;97.79;103507.30;107574;1257;60216;-90
2023/02/05 10:58:40;;;;;;;;;;;;;;;1.03;97.55;103505.04;107195;1257;124511;-83
2023/02/05 11:01:26;;;;;;;;;;;;;;;1.03;97.25;103500.59;107289;1255;74490;-85
2023/02/05 11:04:02;;;;;;;;;;;;;;;1.05;96.86;103501.15;107215;1253;125145;-84
2023/02/05 11:06:41;;;;;;;;;;;;;;;1.06;96.03;103498.96;107099;1256;73233;-83
2023/02/05 11:09:45;;;;;;;;;;;;;;;1.11;95.75;103498.14;107125;1255;124962;-83
2023/02/05 11:12:22;;;;;;;;;;;;;;;1.11;95.03;103496.55;106958;1263;61684;-84
2023/02/05 11:15:05;;;;;;;;;;;;;;;1.09;94.61;103499.61;106667;1263;125088;-86
2023/02/05 11:17:35;;;;;;;;;;;;;;;1.12;94.55;103499.79;106820;1262;65636;-84
2023/02/05 11:20:08;;;;;;;;;;;;;;;1.19;94.47;103497.95;106823;1263;72544;-85
2023/02/05 11:23:07;;;;;;;;;;;;;;;1.22;94.21;103498.15;106805;1262;124518;-91
2023/02/05 11:35:42;;;;;;;;;;;;;;;1.12;92.29;103502.20;106976;1265;73103;-90
2023/02/05 11:42:48;;;;;;;;;;;;;;;0.92;91.53;103499.35;106580;1262;61139;-90
2023/02/05 11:45:48;;;;;;;;;;;;;;;0.95;91.83;103494.08;106538;1263;124623;-91
2023/02/05 11:48:27;;;;;;;;;;;;;;;1.07;91.67;103491.30;107070;1262;64676;-89
2023/02/05 11:55:25;;;;;;;;;;;;;;;1.04;90.48;103485.86;107536;1258;61251;-87
2023/02/05 11:58:01;;;;;;;;;;;;;;;1.01;90.41;103483.75;107167;1257;125506;-89
2023/02/05 12:01:03;;;;;;;;;;;;;;;1.07;90.16;103487.16;107285;1254;73150;-88
2023/02/05 12:03:32;;;;;;;;;;;;;;;1.15;89.80;103490.14;107313;1255;124628;-84
2023/02/05 12:06:03;;;;;;;;;;;;;;;1.34;89.88;103486.21;107468;1255;73270;-85
2023/02/05 12:08:34;;;;;;;;;;;;;;;1.56;89.69;103486.62;107429;1261;61203;-86
2023/02/05 12:11:59;;;;;;;;;;;;;;;1.72;89.24;103480.06;107233;1255;124076;-85
2023/02/05 12:14:26;;;;;;;;;;;;;;;1.96;88.61;103478.19;107516;1257;74110;-85
2023/02/05 12:17:13;;;;;;;;;;;;;;;2.18;88.80;103474.67;107286;1257;124169;-88
2023/02/05 12:19:44;;;;;;;;;;;;;;;2.42;88.86;103468.52;107539;1254;71431;-90
2023/02/05 12:22:43;;;;;;;;;;;;;;;2.53;88.03;103463.89;107219;1259;123899;-87
2023/02/05 12:25:44;;;;;;;;;;;;;;;2.58;88.05;103462.77;107199;1257;59377;-86
2023/02/05 12:32:29;;;;;;;;;;;;;;;2.61;88.49;103465.01;107264;1257;66930;-88
2023/02/05 12:38:52;;;;;;;;;;;;;;;2.47;87.77;103467.62;107370;1257;61178;-87
2023/02/05 12:41:36;;;;;;;;;;;;;;;2.40;87.51;103467.96;107305;1256;61314;-91
2023/02/05 12:51:24;;;;;;;;;;;;;;;2.64;88.18;103471.75;107807;1256;123917;-91
2023/02/05 12:58:21;;;;;;;;;;;;;;;2.63;87.76;103481.48;107146;1255;124856;-94
2023/02/05 13:04:29;;;;;;;;;;;;;;;2.58;87.55;103472.38;107407;1255;124651;-89
2023/02/05 13:07:28;;;;;;;;;;;;;;;2.53;87.52;103476.75;107084;1257;72720;-91
2023/02/05 13:10:31;;;;;;;;;;;;;;;2.48;87.18;103474.84;107060;1258;124565;-93
2023/02/05 13:33:05;;;;;;;;;;;;;;;2.59;86.91;103473.14;107429;1256;124832;-92
2023/02/05 13:35:57;;;;;;;;;;;;;;;2.62;87.22;103471.16;107239;1258;66934;-91
2023/02/05 13:38:59;;;;;;;;;;;;;;;2.63;86.87;103468.55;106898;1257;73128;-93
2023/02/05 13:41:29;;;;;;;;;;;;;;;2.64;87.09;103470.52;106827;1265;60021;-95
2023/02/05 13:43:58;;;;;;;;;;;;;;;2.66;87.16;103469.51;106739;1267;61606;-88
2023/02/05 13:50:34;;;;;;;;;;;;;;;2.54;86.62;103478.23;106541;1269;65837;-91
2023/02/05 13:53:17;;;;;;;;;;;;;;;2.50;86.55;103471.73;106532;1265;124695;-89
2023/02/05 13:59:52;;;;;;;;;;;;;;;2.47;86.60;103470.92;106387;1270;124582;-90
2023/02/05 14:02:27;;;;;;;;;;;;;;;2.36;86.19;103468.21;106840;1262;74591;-90
2023/02/05 14:05:26;;;;;;;;;;;;;;;2.21;85.90;103467.73;106740;1266;124613;-89
2023/02/05 14:08:26;;;;;;;;;;;;;;;2.20;86.24;103468.20;106800;1267;72825;-89
2023/02/05 14:10:56;;;;;;;;;;;;;;;2.19;86.19;103462.48;106654;1261;124569;-89
2023/02/05 14:13:29;;;;;;;;;;;;;;;2.13;86.10;103466.07;106796;1265;59989;-88
2023/02/05 14:19:13;;;;;;;;;;;;;;;2.02;85.95;103472.27;107071;1256;65924;-87
2023/02/05 14:22:05;;;;;;;;;;;;;;;1.99;85.62;103480.40;107081;1254;124809;-87
2023/02/05 14:24:46;;;;;;;;;;;;;;;1.97;85.74;103483.31;106757;1262;61531;-87
2023/02/05 14:27:42;;;;;;;;;;;;;;;1.98;85.75;103488.58;106619;1263;124678;-87
2023/02/05 14:30:48;;;;;;;;;;;;;;;1.91;85.58;103493.92;106319;1268;72597;-87
2023/02/05 14:33:35;;;;;;;;;;;;;;;1.87;85.76;103501.64;106177;1267;125012;-88
2023/02/05 14:36:21;;;;;;;;;;;;;;;1.83;85.78;103497.65;106488;1267;72772;-94
2023/02/05 14:39:00;;;;;;;;;;;;;;;1.80;85.57;103499.68;106274;1269;61405;-86
2023/02/05 14:41:42;;;;;;;;;;;;;;;1.76;85.62;103498.37;106580;1267;63804;-87
2023/02/05 14:44:10;;;;;;;;;;;;;;;1.76;85.48;103500.14;106562;1267;73250;-87
2023/02/05 14:46:55;;;;;;;;;;;;;;;1.73;85.34;103501.79;106573;1267;124533;-86